createdAt,value
2018-09-30T00:00:38.150Z,9.10
2018-09-30T00:01:43.355Z,9.00
2018-09-30T00:02:48.917Z,9.00
2018-09-30T00:03:54.326Z,9.00
2018-09-30T00:04:59.413Z,9.00
2018-09-30T00:06:04.288Z,9.00
2018-09-30T00:07:11.797Z,9.00
2018-09-30T00:08:17.096Z,9.00
2018-09-30T00:09:26.275Z,9.00
2018-09-30T00:10:32.933Z,8.30
2018-09-30T00:11:37.795Z,9.00
2018-09-30T00:12:42.923Z,9.00
2018-09-30T00:13:48.324Z,9.00
2018-09-30T00:14:54.280Z,9.00
2018-09-30T00:15:59.277Z,9.00
2018-09-30T00:17:04.157Z,8.90
2018-09-30T00:18:09.010Z,8.90
2018-09-30T00:19:14.224Z,8.90
2018-09-30T00:20:26.264Z,8.90
2018-09-30T00:21:31.105Z,8.90
2018-09-30T00:22:35.981Z,8.90
2018-09-30T00:23:46.557Z,8.90
2018-09-30T00:24:57.040Z,8.90
2018-09-30T00:26:06.780Z,8.90
2018-09-30T00:27:16.464Z,8.80
2018-09-30T00:28:21.943Z,8.90
2018-09-30T00:29:29.631Z,8.60
2018-09-30T00:30:35.373Z,8.90
2018-09-30T00:31:43.528Z,8.90
2018-09-30T00:32:50.391Z,8.90
2018-09-30T00:34:02.318Z,8.90
2018-09-30T00:35:07.136Z,8.90
2018-09-30T00:36:11.852Z,8.90
2018-09-30T00:37:17.083Z,9.00
2018-09-30T00:38:21.854Z,9.10
2018-09-30T00:39:27.335Z,9.00
2018-09-30T00:40:33.285Z,9.00
2018-09-30T00:41:41.904Z,9.00
2018-09-30T00:42:46.733Z,9.00
2018-09-30T00:43:53.824Z,9.00
2018-09-30T00:44:58.566Z,8.20
2018-09-30T00:46:03.671Z,8.90
2018-09-30T00:47:08.423Z,8.90
2018-09-30T00:48:14.594Z,8.90
2018-09-30T00:49:21.003Z,8.90
2018-09-30T00:50:26.962Z,8.90
2018-09-30T00:51:31.995Z,8.80
2018-09-30T00:52:37.283Z,8.80
2018-09-30T00:53:41.975Z,8.70
2018-09-30T00:54:46.917Z,8.80
2018-09-30T00:55:51.644Z,8.80
2018-09-30T00:56:56.773Z,8.80
2018-09-30T00:58:02.895Z,8.70
2018-09-30T00:59:07.674Z,8.70
2018-09-30T01:00:12.841Z,8.70
2018-09-30T01:01:17.555Z,8.70
2018-09-30T01:02:22.411Z,8.70
2018-09-30T01:03:27.264Z,8.60
2018-09-30T01:04:32.108Z,8.70
2018-09-30T01:05:36.832Z,8.60
2018-09-30T01:06:42.214Z,8.60
2018-09-30T01:07:46.982Z,8.60
2018-09-30T01:08:51.899Z,8.60
2018-09-30T01:09:56.567Z,8.50
2018-09-30T01:11:02.248Z,8.50
2018-09-30T01:12:07.156Z,8.40
2018-09-30T01:13:12.609Z,8.40
2018-09-30T01:14:17.754Z,8.40
2018-09-30T01:15:22.447Z,8.40
2018-09-30T01:16:27.454Z,8.40
2018-09-30T01:17:32.224Z,8.40
2018-09-30T01:18:36.912Z,8.40
2018-09-30T01:19:42.006Z,8.60
2018-09-30T01:20:46.776Z,8.50
2018-09-30T01:21:51.484Z,8.50
2018-09-30T01:22:56.218Z,8.50
2018-09-30T01:24:01.256Z,8.50
2018-09-30T01:25:06.161Z,8.50
2018-09-30T01:26:10.956Z,8.60
2018-09-30T01:27:15.694Z,8.50
2018-09-30T01:28:21.103Z,8.50
2018-09-30T01:29:25.946Z,8.50
2018-09-30T01:30:30.816Z,8.40
2018-09-30T01:31:35.738Z,8.50
2018-09-30T01:32:40.590Z,8.50
2018-09-30T01:33:45.759Z,8.50
2018-09-30T01:34:50.667Z,8.50
2018-09-30T01:35:55.746Z,8.50
2018-09-30T01:37:00.486Z,8.50
2018-09-30T01:38:05.304Z,8.50
2018-09-30T01:39:10.316Z,8.50
2018-09-30T01:40:15.855Z,8.50
2018-09-30T01:41:21.224Z,8.50
2018-09-30T01:42:26.218Z,8.50
2018-09-30T01:43:31.013Z,8.40
2018-09-30T01:44:35.983Z,8.40
2018-09-30T01:45:42.307Z,8.40
2018-09-30T01:46:47.025Z,8.40
2018-09-30T01:47:57.263Z,8.40
2018-09-30T01:49:02.012Z,8.50
2018-09-30T01:50:06.833Z,8.50
2018-09-30T01:51:11.731Z,9.20
2018-09-30T01:52:27.050Z,8.50
2018-09-30T01:53:32.336Z,8.50
2018-09-30T01:54:37.955Z,8.60
2018-09-30T01:55:43.200Z,8.50
2018-09-30T01:56:47.913Z,8.50
2018-09-30T01:57:52.681Z,8.50
2018-09-30T01:58:58.560Z,8.50
2018-09-30T02:00:05.753Z,8.60
2018-09-30T02:01:25.775Z,8.50
2018-09-30T02:02:30.568Z,8.50
2018-09-30T02:03:35.221Z,8.40
2018-09-30T02:04:40.664Z,8.50
2018-09-30T02:05:45.424Z,8.50
2018-09-30T02:06:50.253Z,8.40
2018-09-30T02:07:56.130Z,8.40
2018-09-30T02:09:00.998Z,8.40
2018-09-30T02:10:06.036Z,8.40
2018-09-30T02:11:10.981Z,8.50
2018-09-30T02:12:15.722Z,8.40
2018-09-30T02:13:20.427Z,8.40
2018-09-30T02:14:25.164Z,8.40
2018-09-30T02:15:29.824Z,8.40
2018-09-30T02:16:34.880Z,8.40
2018-09-30T02:17:40.340Z,8.40
2018-09-30T02:18:46.033Z,8.40
2018-09-30T02:19:50.721Z,8.40
2018-09-30T02:20:55.402Z,8.40
2018-09-30T02:22:00.140Z,8.40
2018-09-30T02:23:04.838Z,8.40
2018-09-30T02:24:09.603Z,8.40
2018-09-30T02:25:14.418Z,8.40
2018-09-30T02:26:19.142Z,8.30
2018-09-30T02:27:23.952Z,8.30
2018-09-30T02:28:29.030Z,8.30
2018-09-30T02:29:33.737Z,8.20
2018-09-30T02:30:38.524Z,8.20
2018-09-30T02:31:45.206Z,8.20
2018-09-30T02:32:50.764Z,8.20
2018-09-30T02:33:55.575Z,8.20
2018-09-30T02:35:01.534Z,8.20
2018-09-30T02:36:06.424Z,8.20
2018-09-30T02:37:11.534Z,8.20
2018-09-30T02:38:16.506Z,8.20
2018-09-30T02:39:21.259Z,8.20
2018-09-30T02:40:26.259Z,8.20
2018-09-30T02:41:31.104Z,8.20
2018-09-30T02:42:35.856Z,8.20
2018-09-30T02:43:40.983Z,8.20
2018-09-30T02:44:45.847Z,8.20
2018-09-30T02:45:50.597Z,8.30
2018-09-30T02:46:55.830Z,8.30
2018-09-30T02:48:00.785Z,8.20
2018-09-30T02:49:06.040Z,8.20
2018-09-30T02:50:10.805Z,8.20
2018-09-30T02:51:16.440Z,8.20
2018-09-30T02:52:21.273Z,8.10
2018-09-30T02:53:30.247Z,8.10
2018-09-30T02:54:35.390Z,8.10
2018-09-30T02:55:40.452Z,8.10
2018-09-30T02:56:45.292Z,8.00
2018-09-30T02:57:49.972Z,8.00
2018-09-30T02:58:54.667Z,8.00
2018-09-30T03:00:00.427Z,8.00
2018-09-30T03:01:05.167Z,7.90
2018-09-30T03:02:10.246Z,7.90
2018-09-30T03:03:15.080Z,7.80
2018-09-30T03:04:20.219Z,7.80
2018-09-30T03:05:25.325Z,7.80
2018-09-30T03:06:35.649Z,7.80
2018-09-30T03:07:46.085Z,7.80
2018-09-30T03:08:56.002Z,7.80
2018-09-30T03:10:01.654Z,7.70
2018-09-30T03:11:06.807Z,7.60
2018-09-30T03:12:12.088Z,7.70
2018-09-30T03:13:17.026Z,7.70
2018-09-30T03:14:22.644Z,7.70
2018-09-30T03:15:27.340Z,7.60
2018-09-30T03:16:32.057Z,7.60
2018-09-30T03:17:36.720Z,7.60
2018-09-30T03:18:42.321Z,7.70
2018-09-30T03:19:47.415Z,7.60
2018-09-30T03:20:52.074Z,7.60
2018-09-30T03:21:56.821Z,7.70
2018-09-30T03:23:01.658Z,7.70
2018-09-30T03:24:06.382Z,7.50
2018-09-30T03:25:11.459Z,7.50
2018-09-30T03:26:16.184Z,7.60
2018-09-30T03:27:20.973Z,7.50
2018-09-30T03:28:25.660Z,7.50
2018-09-30T03:29:31.264Z,7.40
2018-09-30T03:30:35.980Z,7.40
2018-09-30T03:31:40.763Z,7.50
2018-09-30T03:32:45.409Z,7.50
2018-09-30T03:33:50.619Z,7.40
2018-09-30T03:35:37.943Z,7.40
2018-09-30T03:36:42.319Z,7.30
2018-09-30T03:37:46.740Z,7.30
2018-09-30T03:38:51.091Z,7.40
2018-09-30T03:39:55.560Z,7.40
2018-09-30T03:40:59.994Z,7.40
2018-09-30T03:42:04.487Z,7.40
2018-09-30T03:43:09.340Z,7.30
2018-09-30T03:44:13.758Z,7.30
2018-09-30T03:45:18.099Z,7.30
2018-09-30T03:46:22.601Z,7.20
2018-09-30T03:47:27.095Z,7.30
2018-09-30T03:48:31.518Z,7.30
2018-09-30T03:49:36.071Z,7.30
2018-09-30T03:50:40.654Z,7.30
2018-09-30T03:51:45.076Z,7.30
2018-09-30T03:52:49.741Z,7.30
2018-09-30T03:53:54.115Z,7.30
2018-09-30T03:54:58.529Z,7.30
2018-09-30T03:56:02.940Z,7.20
2018-09-30T03:57:07.484Z,7.30
2018-09-30T03:58:11.842Z,7.30
2018-09-30T03:59:16.715Z,7.40
2018-09-30T04:00:21.024Z,7.40
2018-09-30T04:01:25.440Z,7.40
2018-09-30T04:02:30.005Z,7.40
2018-09-30T04:03:34.738Z,7.30
2018-09-30T04:04:39.261Z,7.30
2018-09-30T04:05:43.631Z,7.40
2018-09-30T04:06:48.369Z,7.40
2018-09-30T04:07:53.075Z,7.30
2018-09-30T04:08:57.922Z,7.30
2018-09-30T04:10:02.329Z,7.20
2018-09-30T04:11:06.739Z,7.20
2018-09-30T04:12:11.451Z,7.30
2018-09-30T04:13:16.304Z,7.20
2018-09-30T04:14:20.760Z,7.20
2018-09-30T04:15:25.182Z,7.20
2018-09-30T04:16:29.910Z,7.30
2018-09-30T04:17:34.500Z,7.40
2018-09-30T04:18:38.940Z,7.40
2018-09-30T04:19:43.268Z,7.40
2018-09-30T04:20:47.683Z,7.40
2018-09-30T04:21:52.045Z,7.40
2018-09-30T04:22:56.503Z,7.40
2018-09-30T04:24:06.350Z,7.40
2018-09-30T04:25:11.690Z,7.40
2018-09-30T04:26:16.039Z,7.40
2018-09-30T04:27:20.759Z,8.00
2018-09-30T04:28:25.159Z,7.40
2018-09-30T04:29:29.666Z,7.40
2018-09-30T04:30:34.866Z,7.30
2018-09-30T04:31:39.346Z,7.30
2018-09-30T04:32:43.835Z,7.30
2018-09-30T04:33:48.495Z,7.30
2018-09-30T04:34:54.682Z,7.30
2018-09-30T04:35:59.887Z,7.30
2018-09-30T04:37:04.213Z,7.20
2018-09-30T04:38:08.697Z,7.20
2018-09-30T04:39:13.165Z,7.20
2018-09-30T04:40:17.742Z,7.20
2018-09-30T04:41:22.155Z,7.10
2018-09-30T04:42:26.554Z,7.10
2018-09-30T04:43:30.959Z,7.00
2018-09-30T04:44:35.359Z,7.10
2018-09-30T04:45:40.549Z,7.10
2018-09-30T04:46:44.954Z,7.10
2018-09-30T04:47:49.354Z,7.10
2018-09-30T04:48:53.915Z,7.10
2018-09-30T04:49:58.371Z,7.10
2018-09-30T04:51:02.875Z,7.10
2018-09-30T04:52:07.539Z,7.00
2018-09-30T04:53:12.070Z,7.10
2018-09-30T04:54:16.491Z,7.10
2018-09-30T04:55:20.972Z,7.20
2018-09-30T04:56:25.603Z,7.20
2018-09-30T04:57:30.078Z,7.20
2018-09-30T04:58:34.457Z,7.20
2018-09-30T04:59:38.951Z,7.10
2018-09-30T05:00:43.388Z,7.10
2018-09-30T05:01:47.851Z,7.10
2018-09-30T05:02:52.583Z,7.20
2018-09-30T05:03:57.125Z,7.20
2018-09-30T05:05:01.509Z,7.20
2018-09-30T05:06:06.003Z,7.10
2018-09-30T05:07:10.462Z,7.10
2018-09-30T05:08:14.844Z,7.10
2018-09-30T05:09:19.539Z,7.10
2018-09-30T05:10:23.928Z,7.10
2018-09-30T05:11:28.328Z,7.10
2018-09-30T05:12:33.362Z,7.10
2018-09-30T05:13:37.752Z,7.10
2018-09-30T05:14:42.396Z,7.10
2018-09-30T05:15:46.731Z,7.10
2018-09-30T05:16:51.488Z,7.10
2018-09-30T05:17:55.898Z,7.10
2018-09-30T05:19:00.323Z,7.10
2018-09-30T05:20:05.135Z,7.10
2018-09-30T05:21:09.499Z,7.10
2018-09-30T05:22:13.944Z,7.00
2018-09-30T05:23:20.042Z,7.00
2018-09-30T05:24:24.770Z,7.00
2018-09-30T05:25:29.825Z,7.00
2018-09-30T05:26:35.176Z,7.00
2018-09-30T05:27:40.710Z,7.00
2018-09-30T05:28:47.477Z,7.00
2018-09-30T05:29:52.238Z,7.00
2018-09-30T05:30:57.253Z,6.90
2018-09-30T05:32:01.632Z,6.90
2018-09-30T05:33:06.037Z,7.00
2018-09-30T05:34:10.418Z,7.00
2018-09-30T05:35:14.778Z,7.00
2018-09-30T05:36:19.175Z,6.90
2018-09-30T05:37:24.166Z,7.00
2018-09-30T05:38:28.685Z,7.00
2018-09-30T05:41:39.852Z,7.00
2018-09-30T05:42:44.248Z,7.00
2018-09-30T05:43:49.104Z,7.00
2018-09-30T05:44:53.619Z,6.70
2018-09-30T05:45:58.093Z,7.00
2018-09-30T05:47:02.525Z,7.00
2018-09-30T05:48:07.038Z,7.00
2018-09-30T05:49:11.536Z,7.00
2018-09-30T05:50:16.976Z,7.00
2018-09-30T05:51:21.426Z,7.00
2018-09-30T05:52:25.945Z,6.90
2018-09-30T05:53:30.346Z,6.90
2018-09-30T05:54:34.729Z,6.90
2018-09-30T05:55:39.191Z,6.90
2018-09-30T05:56:44.871Z,6.80
2018-09-30T05:57:49.922Z,6.80
2018-09-30T05:58:54.590Z,6.80
2018-09-30T05:59:59.300Z,6.80
2018-09-30T06:01:04.185Z,7.00
2018-09-30T06:02:09.614Z,6.80
2018-09-30T06:03:14.589Z,6.80
2018-09-30T06:04:18.976Z,6.70
2018-09-30T06:05:24.308Z,6.70
2018-09-30T06:06:29.125Z,6.80
2018-09-30T06:07:33.606Z,6.80
2018-09-30T06:08:37.972Z,6.90
2018-09-30T06:09:42.811Z,6.90
2018-09-30T06:10:47.274Z,6.90
2018-09-30T06:11:51.671Z,6.90
2018-09-30T06:12:57.282Z,6.90
2018-09-30T06:14:02.370Z,6.80
2018-09-30T06:15:08.237Z,6.80
2018-09-30T06:16:16.195Z,6.80
2018-09-30T06:17:20.703Z,6.90
2018-09-30T06:18:25.958Z,6.90
2018-09-30T06:19:30.604Z,6.80
2018-09-30T06:20:36.402Z,6.80
2018-09-30T06:21:41.717Z,6.70
2018-09-30T06:22:46.424Z,6.80
2018-09-30T06:23:51.019Z,6.70
2018-09-30T06:24:55.583Z,6.90
2018-09-30T06:26:00.459Z,6.80
2018-09-30T06:27:10.762Z,6.80
2018-09-30T06:28:19.104Z,6.80
2018-09-30T06:29:26.208Z,6.80
2018-09-30T06:30:32.129Z,6.80
2018-09-30T06:31:36.952Z,6.80
2018-09-30T06:32:57.550Z,6.90
2018-09-30T06:34:07.881Z,6.90
2018-09-30T06:35:29.266Z,6.90
2018-09-30T06:36:48.963Z,6.90
2018-09-30T06:38:04.435Z,6.90
2018-09-30T06:39:18.466Z,7.00
2018-09-30T06:41:50.883Z,7.10
2018-09-30T06:42:55.445Z,7.20
2018-09-30T06:44:12.510Z,7.20
2018-09-30T06:45:28.960Z,7.30
2018-09-30T06:46:44.472Z,7.30
2018-09-30T06:47:58.241Z,7.30
2018-09-30T06:49:16.256Z,7.40
2018-09-30T06:50:28.606Z,7.20
2018-09-30T06:51:34.160Z,7.40
2018-09-30T06:52:44.689Z,7.50
2018-09-30T06:53:50.277Z,7.50
2018-09-30T06:54:56.157Z,7.50
2018-09-30T06:56:00.580Z,7.50
2018-09-30T06:57:05.174Z,7.60
2018-09-30T06:58:10.775Z,7.70
2018-09-30T06:59:20.111Z,7.70
2018-09-30T07:00:24.897Z,7.70
2018-09-30T07:01:42.840Z,7.70
2018-09-30T07:02:49.198Z,7.80
2018-09-30T07:03:53.732Z,7.80
2018-09-30T07:04:59.181Z,7.80
2018-09-30T07:06:04.390Z,7.90
2018-09-30T07:07:08.817Z,7.90
2018-09-30T07:08:13.890Z,7.90
2018-09-30T07:09:20.735Z,7.30
2018-09-30T07:10:25.874Z,8.10
2018-09-30T07:11:31.497Z,8.10
2018-09-30T07:12:36.428Z,8.10
2018-09-30T07:13:42.453Z,8.20
2018-09-30T07:14:46.952Z,8.20
2018-09-30T07:15:53.446Z,8.20
2018-09-30T07:16:58.292Z,8.20
2018-09-30T07:18:04.186Z,8.30
2018-09-30T07:19:16.683Z,8.30
2018-09-30T07:20:33.454Z,8.30
2018-09-30T07:21:44.584Z,8.40
2018-09-30T07:23:01.694Z,8.40
2018-09-30T07:24:31.805Z,8.50
2018-09-30T07:26:06.872Z,8.50
2018-09-30T07:27:13.764Z,8.60
2018-09-30T07:28:23.307Z,8.70
2018-09-30T07:29:37.358Z,8.70
2018-09-30T07:31:00.914Z,8.70
2018-09-30T07:32:10.340Z,8.70
2018-09-30T07:33:17.110Z,8.80
2018-09-30T07:34:21.636Z,8.80
2018-09-30T07:35:35.016Z,8.80
2018-09-30T07:36:53.673Z,8.90
2018-09-30T07:38:01.789Z,8.90
2018-09-30T07:39:11.951Z,8.90
2018-09-30T07:40:22.361Z,9.00
2018-09-30T07:41:29.139Z,9.00
2018-09-30T07:42:35.416Z,9.00
2018-09-30T07:43:41.517Z,9.10
2018-09-30T07:44:46.285Z,9.10
2018-09-30T07:45:51.884Z,9.20
2018-09-30T07:46:57.432Z,9.20
2018-09-30T07:48:04.300Z,9.20
2018-09-30T07:49:12.365Z,9.30
2018-09-30T07:50:19.145Z,9.40
2018-09-30T07:51:27.380Z,9.50
2018-09-30T07:52:35.308Z,9.50
2018-09-30T07:53:41.263Z,9.50
2018-09-30T07:54:46.791Z,9.60
2018-09-30T07:55:56.615Z,9.50
2018-09-30T07:57:08.024Z,9.50
2018-09-30T07:58:30.902Z,9.50
2018-09-30T07:59:45.692Z,9.60
2018-09-30T08:00:51.782Z,9.60
2018-09-30T08:01:58.516Z,9.70
2018-09-30T08:03:04.353Z,9.70
2018-09-30T08:04:11.661Z,9.80
2018-09-30T08:05:24.516Z,9.80
2018-09-30T08:06:29.632Z,9.80
2018-09-30T08:07:37.256Z,9.80
2018-09-30T08:08:43.430Z,9.90
2018-09-30T08:09:54.401Z,9.90
2018-09-30T08:11:04.644Z,9.80
2018-09-30T08:12:09.496Z,9.80
2018-09-30T08:13:14.201Z,9.80
2018-09-30T08:14:23.341Z,9.90
2018-09-30T08:15:27.853Z,9.90
2018-09-30T08:16:32.735Z,10.00
2018-09-30T08:17:38.324Z,10.00
2018-09-30T08:18:42.880Z,10.10
2018-09-30T08:19:49.414Z,10.10
2018-09-30T08:20:53.750Z,10.10
2018-09-30T08:22:01.941Z,10.10
2018-09-30T08:23:08.273Z,10.10
2018-09-30T08:24:12.999Z,10.10
2018-09-30T08:25:17.534Z,10.10
2018-09-30T08:26:24.413Z,9.90
2018-09-30T08:27:28.875Z,10.20
2018-09-30T08:28:33.357Z,10.30
2018-09-30T08:29:38.182Z,10.40
2018-09-30T08:30:42.795Z,10.40
2018-09-30T08:31:48.135Z,10.40
2018-09-30T08:32:54.247Z,10.40
2018-09-30T08:34:01.340Z,10.50
2018-09-30T08:35:09.050Z,10.50
2018-09-30T08:36:13.545Z,10.50
2018-09-30T08:37:23.191Z,9.80
2018-09-30T08:38:34.271Z,10.60
2018-09-30T08:39:39.811Z,10.60
2018-09-30T08:40:49.389Z,10.70
2018-09-30T08:41:54.188Z,10.80
2018-09-30T08:42:58.846Z,10.80
2018-09-30T08:44:03.436Z,10.90
2018-09-30T08:45:08.003Z,10.90
2018-09-30T08:46:12.499Z,10.90
2018-09-30T08:47:17.855Z,11.00
2018-09-30T08:48:22.754Z,11.00
2018-09-30T08:49:27.377Z,11.00
2018-09-30T08:50:35.432Z,11.10
2018-09-30T08:51:40.046Z,11.10
2018-09-30T08:52:45.378Z,11.10
2018-09-30T08:53:50.229Z,11.20
2018-09-30T08:54:58.367Z,11.20
2018-09-30T08:56:09.662Z,11.20
2018-09-30T08:57:17.657Z,11.20
2018-09-30T08:58:23.642Z,11.20
2018-09-30T08:59:28.234Z,11.20
2018-09-30T09:00:34.958Z,11.20
2018-09-30T09:01:40.210Z,11.30
2018-09-30T09:02:46.418Z,11.40
2018-09-30T09:03:51.782Z,11.40
2018-09-30T09:04:56.624Z,11.40
2018-09-30T09:06:02.232Z,11.50
2018-09-30T09:07:07.184Z,11.50
2018-09-30T09:08:11.847Z,11.50
2018-09-30T09:09:16.320Z,11.60
2018-09-30T09:10:21.297Z,11.60
2018-09-30T09:11:28.456Z,11.60
2018-09-30T09:12:35.356Z,11.70
2018-09-30T09:13:39.954Z,11.70
2018-09-30T09:14:44.807Z,11.70
2018-09-30T09:15:49.429Z,11.70
2018-09-30T09:16:53.984Z,11.70
2018-09-30T09:18:01.330Z,11.80
2018-09-30T09:19:07.709Z,11.80
2018-09-30T09:20:12.285Z,11.80
2018-09-30T09:21:16.740Z,11.80
2018-09-30T09:22:22.289Z,11.80
2018-09-30T09:23:26.692Z,11.90
2018-09-30T09:24:33.486Z,11.90
2018-09-30T09:25:39.846Z,11.90
2018-09-30T09:26:44.564Z,12.00
2018-09-30T09:27:49.915Z,12.00
2018-09-30T09:28:55.487Z,12.10
2018-09-30T09:30:00.570Z,12.10
2018-09-30T09:31:05.984Z,12.10
2018-09-30T09:32:14.625Z,12.20
2018-09-30T09:33:19.427Z,12.20
2018-09-30T09:34:24.982Z,12.30
2018-09-30T09:35:29.643Z,12.30
2018-09-30T09:36:35.030Z,12.30
2018-09-30T09:37:39.962Z,12.30
2018-09-30T09:38:45.291Z,12.30
2018-09-30T09:39:56.269Z,12.30
2018-09-30T09:41:02.801Z,12.30
2018-09-30T09:42:07.924Z,12.40
2018-09-30T09:43:12.914Z,12.40
2018-09-30T09:44:46.994Z,12.30
2018-09-30T09:46:00.451Z,12.40
2018-09-30T09:47:12.068Z,12.40
2018-09-30T09:48:20.955Z,12.40
2018-09-30T09:49:32.808Z,12.50
2018-09-30T09:50:43.601Z,12.50
2018-09-30T09:51:51.403Z,12.50
2018-09-30T09:53:01.603Z,12.50
2018-09-30T09:54:07.732Z,12.60
2018-09-30T09:55:12.649Z,12.60
2018-09-30T09:56:18.414Z,12.60
2018-09-30T09:57:36.132Z,12.70
2018-09-30T09:58:43.988Z,12.70
2018-09-30T09:59:48.804Z,12.80
2018-09-30T10:01:05.385Z,12.80
2018-09-30T10:02:19.013Z,12.80
2018-09-30T10:03:26.899Z,12.90
2018-09-30T10:04:35.018Z,12.90
2018-09-30T10:05:46.856Z,13.00
2018-09-30T10:06:54.091Z,13.10
2018-09-30T10:08:04.572Z,13.00
2018-09-30T10:09:15.467Z,13.10
2018-09-30T10:10:21.414Z,13.10
2018-09-30T10:11:28.756Z,13.00
2018-09-30T10:12:37.440Z,13.20
2018-09-30T10:13:43.576Z,13.10
2018-09-30T10:14:49.460Z,13.20
2018-09-30T10:15:56.769Z,13.20
2018-09-30T10:17:02.203Z,13.20
2018-09-30T10:18:09.727Z,13.20
2018-09-30T10:19:17.663Z,13.20
2018-09-30T10:20:23.928Z,13.20
2018-09-30T10:21:30.296Z,13.20
2018-09-30T10:22:35.178Z,13.30
2018-09-30T10:23:40.954Z,13.30
2018-09-30T10:24:46.279Z,13.30
2018-09-30T10:25:51.266Z,13.40
2018-09-30T10:26:57.281Z,13.40
2018-09-30T10:28:04.406Z,13.40
2018-09-30T10:29:20.056Z,13.40
2018-09-30T10:30:31.384Z,13.40
2018-09-30T10:31:40.200Z,13.50
2018-09-30T10:32:44.784Z,13.50
2018-09-30T10:33:51.163Z,13.60
2018-09-30T10:34:58.254Z,13.70
2018-09-30T10:36:04.711Z,13.70
2018-09-30T10:37:09.914Z,13.70
2018-09-30T10:38:14.599Z,13.70
2018-09-30T10:39:19.678Z,13.70
2018-09-30T10:40:24.126Z,13.70
2018-09-30T10:41:28.560Z,13.70
2018-09-30T10:42:33.867Z,13.80
2018-09-30T10:43:41.820Z,13.80
2018-09-30T10:44:46.197Z,13.80
2018-09-30T10:45:50.780Z,13.80
2018-09-30T10:46:56.829Z,13.90
2018-09-30T10:48:02.146Z,13.90
2018-09-30T10:49:09.443Z,13.90
2018-09-30T10:50:14.418Z,14.00
2018-09-30T10:51:20.166Z,14.00
2018-09-30T10:52:25.477Z,14.10
2018-09-30T10:53:29.903Z,14.10
2018-09-30T10:54:34.368Z,14.10
2018-09-30T10:55:38.846Z,14.10
2018-09-30T10:56:43.616Z,14.10
2018-09-30T10:57:48.821Z,14.10
2018-09-30T10:58:53.267Z,14.20
2018-09-30T10:59:58.813Z,14.20
2018-09-30T11:01:03.326Z,14.20
2018-09-30T11:02:08.346Z,14.20
2018-09-30T11:04:16.337Z,14.20
2018-09-30T11:05:23.021Z,14.20
2018-09-30T11:06:27.826Z,14.30
2018-09-30T11:07:33.413Z,14.20
2018-09-30T11:08:41.154Z,14.30
2018-09-30T11:09:50.132Z,14.40
2018-09-30T11:10:56.611Z,14.40
2018-09-30T11:12:07.218Z,14.50
2018-09-30T11:13:12.814Z,14.50
2018-09-30T11:14:30.820Z,14.50
2018-09-30T11:16:22.346Z,14.50
2018-09-30T11:17:28.477Z,14.60
2018-09-30T11:18:34.066Z,14.70
2018-09-30T11:19:40.913Z,14.70
2018-09-30T11:20:47.264Z,14.80
2018-09-30T11:23:28.433Z,14.90
2018-09-30T11:24:33.249Z,15.10
2018-09-30T11:25:37.944Z,15.20
2018-09-30T11:26:42.753Z,15.30
2018-09-30T11:27:47.374Z,15.50
2018-09-30T11:28:54.872Z,15.80
2018-09-30T11:30:00.334Z,16.10
2018-09-30T11:31:05.269Z,16.40
2018-09-30T11:32:13.264Z,16.80
2018-09-30T11:33:18.485Z,17.60
2018-09-30T11:34:23.146Z,18.50
2018-09-30T11:35:28.741Z,19.40
2018-09-30T11:36:34.714Z,20.20
2018-09-30T11:37:40.778Z,20.90
2018-09-30T11:38:45.907Z,21.80
2018-09-30T11:39:55.419Z,22.40
2018-09-30T11:41:01.079Z,23.10
2018-09-30T11:42:05.815Z,23.60
2018-09-30T11:43:16.189Z,24.10
2018-09-30T11:44:22.104Z,24.40
2018-09-30T11:45:28.544Z,24.40
2018-09-30T11:46:35.679Z,24.50
2018-09-30T11:47:42.279Z,24.80
2018-09-30T11:48:46.824Z,24.60
2018-09-30T11:49:56.275Z,24.80
2018-09-30T11:51:01.808Z,24.80
2018-09-30T11:52:09.185Z,24.70
2018-09-30T11:53:13.867Z,24.90
2018-09-30T11:54:19.647Z,25.50
2018-09-30T11:55:25.195Z,25.80
2018-09-30T11:56:29.927Z,25.90
2018-09-30T11:57:34.918Z,25.90
2018-09-30T11:58:44.723Z,25.90
2018-09-30T11:59:52.423Z,26.00
2018-09-30T12:00:58.766Z,26.00
2018-09-30T12:02:03.426Z,26.10
2018-09-30T12:03:09.714Z,26.00
2018-09-30T12:04:16.570Z,25.90
2018-09-30T12:05:22.375Z,26.20
2018-09-30T12:06:27.331Z,26.00
2018-09-30T12:07:32.230Z,26.40
2018-09-30T12:08:38.372Z,26.20
2018-09-30T12:09:43.199Z,26.00
2018-09-30T12:10:49.548Z,25.50
2018-09-30T12:11:55.260Z,25.70
2018-09-30T12:12:59.717Z,26.10
2018-09-30T12:14:04.322Z,26.20
2018-09-30T12:15:09.650Z,26.20
2018-09-30T12:16:15.936Z,26.00
2018-09-30T12:17:23.384Z,26.30
2018-09-30T12:18:29.163Z,26.20
2018-09-30T12:19:34.503Z,26.80
2018-09-30T12:20:40.528Z,26.80
2018-09-30T12:21:45.760Z,26.60
2018-09-30T12:22:52.601Z,26.00
2018-09-30T12:23:57.414Z,25.70
2018-09-30T12:25:03.235Z,25.80
2018-09-30T12:26:09.592Z,25.90
2018-09-30T12:27:14.944Z,25.70
2018-09-30T12:28:19.881Z,25.60
2018-09-30T12:29:26.283Z,26.00
2018-09-30T12:30:30.887Z,25.70
2018-09-30T12:31:36.021Z,25.30
2018-09-30T12:32:43.266Z,25.10
2018-09-30T12:33:50.200Z,25.20
2018-09-30T12:34:54.897Z,25.70
2018-09-30T12:36:00.276Z,25.80
2018-09-30T12:37:04.880Z,25.30
2018-09-30T12:38:10.086Z,25.10
2018-09-30T12:39:15.798Z,25.60
2018-09-30T12:40:20.824Z,25.90
2018-09-30T12:41:26.065Z,25.50
2018-09-30T12:42:30.732Z,25.10
2018-09-30T12:43:35.563Z,24.60
2018-09-30T12:44:42.207Z,24.40
2018-09-30T12:45:48.410Z,24.10
2018-09-30T12:46:54.156Z,24.10
2018-09-30T12:47:58.804Z,24.30
2018-09-30T12:49:07.561Z,24.60
2018-09-30T12:50:49.863Z,24.80
2018-09-30T12:53:17.380Z,24.70
2018-09-30T12:54:22.482Z,24.70
2018-09-30T12:55:32.417Z,24.50
2018-09-30T12:56:38.005Z,24.70
2018-09-30T12:57:42.458Z,24.40
2018-09-30T12:58:47.042Z,24.10
2018-09-30T12:59:55.652Z,24.20
2018-09-30T13:01:02.522Z,24.00
2018-09-30T13:02:09.384Z,24.00
2018-09-30T13:03:14.818Z,23.90
2018-09-30T13:04:19.801Z,23.70
2018-09-30T13:05:24.640Z,23.40
2018-09-30T13:06:30.207Z,23.10
2018-09-30T13:07:35.430Z,22.50
2018-09-30T13:10:01.111Z,21.80
2018-09-30T13:11:05.712Z,21.40
2018-09-30T13:12:13.785Z,21.20
2018-09-30T13:13:20.265Z,21.00
2018-09-30T13:14:24.747Z,20.80
2018-09-30T13:15:32.456Z,20.70
2018-09-30T13:16:37.545Z,20.50
2018-09-30T13:17:43.041Z,20.30
2018-09-30T13:18:54.557Z,20.10
2018-09-30T13:20:02.103Z,20.00
2018-09-30T13:21:15.057Z,19.80
2018-09-30T13:22:25.668Z,19.80
2018-09-30T13:23:35.243Z,19.80
2018-09-30T13:24:42.247Z,19.70
2018-09-30T13:25:58.406Z,19.80
2018-09-30T13:27:05.844Z,19.70
2018-09-30T13:28:13.955Z,19.70
2018-09-30T13:29:20.060Z,19.60
2018-09-30T13:30:27.350Z,19.60
2018-09-30T13:31:36.374Z,19.70
2018-09-30T13:32:44.434Z,19.70
2018-09-30T13:33:50.092Z,19.60
2018-09-30T13:34:57.394Z,19.60
2018-09-30T13:36:11.621Z,19.50
2018-09-30T13:37:19.527Z,19.50
2018-09-30T13:38:28.664Z,19.50
2018-09-30T13:39:37.636Z,19.40
2018-09-30T13:40:45.321Z,19.40
2018-09-30T13:41:54.868Z,19.30
2018-09-30T13:43:08.295Z,19.20
2018-09-30T13:44:20.156Z,19.20
2018-09-30T13:45:27.871Z,19.20
2018-09-30T13:46:37.488Z,19.20
2018-09-30T13:47:51.298Z,19.10
2018-09-30T13:48:58.608Z,19.10
2018-09-30T13:50:09.967Z,19.10
2018-09-30T13:51:32.264Z,19.10
2018-09-30T13:52:38.736Z,19.00
2018-09-30T13:53:43.869Z,19.00
2018-09-30T13:54:58.703Z,19.00
2018-09-30T13:56:05.533Z,18.90
2018-09-30T13:57:17.996Z,18.90
2018-09-30T13:58:39.064Z,19.00
2018-09-30T13:59:48.181Z,19.00
2018-09-30T14:00:55.590Z,19.00
2018-09-30T14:02:01.563Z,19.00
2018-09-30T14:03:06.277Z,19.00
2018-09-30T14:04:11.040Z,18.90
2018-09-30T14:05:18.349Z,18.90
2018-09-30T14:06:35.712Z,18.80
2018-09-30T14:07:52.971Z,18.70
2018-09-30T14:08:57.653Z,18.50
2018-09-30T14:11:38.126Z,18.30
2018-09-30T14:12:43.966Z,18.40
2018-09-30T14:13:48.702Z,18.40
2018-09-30T14:14:53.228Z,18.30
2018-09-30T14:16:03.857Z,18.20
2018-09-30T14:17:08.840Z,18.10
2018-09-30T14:18:14.155Z,18.10
2018-09-30T14:19:20.689Z,18.20
2018-09-30T14:20:27.086Z,18.30
2018-09-30T14:21:32.005Z,18.40
2018-09-30T14:22:37.264Z,18.30
2018-09-30T14:23:42.810Z,18.20
2018-09-30T14:24:48.374Z,18.20
2018-09-30T14:25:54.237Z,18.20
2018-09-30T14:26:59.672Z,18.20
2018-09-30T14:28:06.841Z,18.10
2018-09-30T14:29:12.016Z,18.10
2018-09-30T14:30:28.937Z,18.00
2018-09-30T14:31:34.806Z,18.10
2018-09-30T14:32:39.652Z,18.10
2018-09-30T14:33:45.432Z,18.10
2018-09-30T14:34:51.833Z,18.10
2018-09-30T14:35:58.464Z,18.20
2018-09-30T14:37:03.508Z,18.20
2018-09-30T14:38:07.903Z,18.20
2018-09-30T14:39:15.394Z,18.20
2018-09-30T14:40:22.589Z,18.20
2018-09-30T14:41:31.801Z,18.10
2018-09-30T14:42:37.954Z,18.00
2018-09-30T14:43:42.847Z,17.90
2018-09-30T14:44:47.392Z,17.90